createdAt,value
2018-03-30T00:00:51.356Z,4.44
2018-03-30T00:01:51.332Z,4.54
2018-03-30T00:02:51.309Z,4.53
2018-03-30T00:03:51.275Z,4.47
2018-03-30T00:04:51.235Z,4.40
2018-03-30T00:05:51.211Z,4.42
2018-03-30T00:06:51.185Z,4.46
2018-03-30T00:07:51.156Z,4.30
2018-03-30T00:08:51.141Z,4.30
2018-03-30T00:09:51.095Z,4.32
2018-03-30T00:10:51.060Z,4.33
2018-03-30T00:11:51.039Z,4.33
2018-03-30T00:12:51.005Z,4.38
2018-03-30T00:13:50.973Z,4.29
2018-03-30T00:14:50.972Z,4.26
2018-03-30T00:15:50.938Z,4.26
2018-03-30T00:16:50.912Z,4.17
2018-03-30T00:17:50.857Z,4.20
2018-03-30T00:18:50.836Z,4.32
2018-03-30T00:19:50.796Z,4.22
2018-03-30T00:20:50.765Z,4.26
2018-03-30T00:21:50.735Z,4.21
2018-03-30T00:22:50.705Z,4.17
2018-03-30T00:23:50.681Z,4.17
2018-03-30T00:24:50.646Z,4.11
2018-03-30T00:25:50.640Z,4.21
2018-03-30T00:26:50.595Z,4.14
2018-03-30T00:27:50.554Z,4.26
2018-03-30T00:28:50.531Z,4.18
2018-03-30T00:29:50.494Z,4.22
2018-03-30T00:30:50.464Z,4.18
2018-03-30T00:31:50.446Z,4.15
2018-03-30T00:32:50.407Z,4.22
2018-03-30T00:33:50.386Z,4.20
2018-03-30T00:34:50.355Z,4.22
2018-03-30T00:35:50.315Z,4.08
2018-03-30T00:36:50.293Z,4.15
2018-03-30T00:37:50.259Z,4.14
2018-03-30T00:38:50.232Z,3.97
2018-03-30T00:39:50.210Z,4.03
2018-03-30T00:40:50.216Z,4.02
2018-03-30T00:41:50.143Z,4.03
2018-03-30T00:42:50.112Z,4.00
2018-03-30T00:43:50.086Z,3.97
2018-03-30T00:44:50.052Z,4.00
2018-03-30T00:45:50.028Z,4.04
2018-03-30T00:46:49.995Z,4.02
2018-03-30T00:47:49.956Z,4.03
2018-03-30T00:48:49.933Z,4.00
2018-03-30T00:49:49.907Z,3.99
2018-03-30T00:50:49.871Z,4.04
2018-03-30T00:51:49.847Z,4.14
2018-03-30T00:52:49.812Z,4.10
2018-03-30T00:53:49.920Z,4.10
2018-03-30T00:54:49.779Z,4.04
2018-03-30T00:55:51.821Z,4.11
2018-03-30T00:56:51.325Z,4.10
2018-03-30T00:57:49.670Z,4.17
2018-03-30T00:58:49.630Z,4.03
2018-03-30T00:59:49.613Z,4.14
2018-03-30T01:00:49.573Z,4.03
2018-03-30T01:01:49.543Z,4.07
2018-03-30T01:02:49.518Z,4.07
2018-03-30T01:03:49.483Z,4.03
2018-03-30T01:04:49.453Z,4.08
2018-03-30T01:05:49.421Z,4.03
2018-03-30T01:06:49.397Z,4.00
2018-03-30T01:07:49.372Z,4.04
2018-03-30T01:08:49.333Z,4.03
2018-03-30T01:09:49.301Z,4.04
2018-03-30T01:10:49.283Z,4.00
2018-03-30T01:11:49.237Z,3.97
2018-03-30T01:12:49.219Z,4.00
2018-03-30T01:13:49.189Z,4.03
2018-03-30T01:14:49.164Z,3.99
2018-03-30T01:15:49.120Z,4.02
2018-03-30T01:16:49.105Z,4.08
2018-03-30T01:17:49.079Z,4.02
2018-03-30T01:18:49.036Z,3.97
2018-03-30T01:19:49.003Z,4.00
2018-03-30T01:20:48.980Z,4.07
2018-03-30T01:21:48.943Z,4.02
2018-03-30T01:22:48.913Z,3.99
2018-03-30T01:23:48.886Z,3.97
2018-03-30T01:24:48.872Z,3.93
2018-03-30T01:25:48.823Z,3.93
2018-03-30T01:26:48.797Z,4.07
2018-03-30T01:27:48.779Z,4.07
2018-03-30T01:28:48.755Z,4.02
2018-03-30T01:29:48.711Z,3.99
2018-03-30T01:30:48.685Z,4.03
2018-03-30T01:31:48.654Z,4.00
2018-03-30T01:32:48.627Z,3.94
2018-03-30T01:33:48.581Z,3.97
2018-03-30T01:34:48.548Z,4.04
2018-03-30T01:35:48.531Z,4.08
2018-03-30T01:36:48.499Z,4.04
2018-03-30T01:37:48.464Z,4.15
2018-03-30T01:38:48.449Z,4.12
2018-03-30T01:39:48.411Z,4.22
2018-03-30T01:40:48.372Z,4.07
2018-03-30T01:41:48.345Z,4.04
2018-03-30T01:42:48.311Z,4.08
2018-03-30T01:43:48.287Z,4.04
2018-03-30T01:44:48.253Z,4.10
2018-03-30T01:45:48.224Z,4.14
2018-03-30T01:46:48.189Z,4.12
2018-03-30T01:47:48.169Z,4.04
2018-03-30T01:48:48.139Z,4.00
2018-03-30T01:49:48.149Z,4.03
2018-03-30T01:50:48.071Z,4.04
2018-03-30T01:51:48.062Z,4.08
2018-03-30T01:52:48.024Z,4.00
2018-03-30T01:53:48.015Z,4.08
2018-03-30T01:54:47.962Z,4.07
2018-03-30T01:55:47.925Z,4.11
2018-03-30T01:56:47.891Z,4.12
2018-03-30T01:57:47.862Z,3.97
2018-03-30T01:58:47.874Z,4.04
2018-03-30T01:59:47.802Z,4.04
2018-03-30T02:00:47.777Z,4.03
2018-03-30T02:01:47.742Z,4.12
2018-03-30T02:02:47.720Z,3.97
2018-03-30T02:03:47.696Z,4.02
2018-03-30T02:04:47.657Z,4.02
2018-03-30T02:05:47.636Z,4.08
2018-03-30T02:06:47.635Z,4.03
2018-03-30T02:07:47.563Z,3.99
2018-03-30T02:08:47.535Z,3.99
2018-03-30T02:09:47.508Z,4.11
2018-03-30T02:10:47.485Z,4.17
2018-03-30T02:11:47.456Z,4.24
2018-03-30T02:12:47.446Z,4.14
2018-03-30T02:13:47.384Z,4.22
2018-03-30T02:14:47.358Z,4.26
2018-03-30T02:15:47.322Z,4.26
2018-03-30T02:16:47.299Z,4.21
2018-03-30T02:17:47.268Z,4.18
2018-03-30T02:18:47.240Z,4.20
2018-03-30T02:19:47.212Z,4.20
2018-03-30T02:20:47.178Z,4.22
2018-03-30T02:21:47.143Z,4.11
2018-03-30T02:22:47.121Z,4.02
2018-03-30T02:23:47.081Z,4.07
2018-03-30T02:24:47.082Z,3.99
2018-03-30T02:25:47.030Z,4.02
2018-03-30T02:26:46.999Z,3.96
2018-03-30T02:27:46.968Z,4.03
2018-03-30T02:28:46.944Z,4.08
2018-03-30T02:29:46.904Z,4.08
2018-03-30T02:30:46.878Z,4.03
2018-03-30T02:31:46.845Z,4.11
2018-03-30T02:32:46.813Z,4.02
2018-03-30T02:33:46.791Z,4.03
2018-03-30T02:34:46.760Z,4.00
2018-03-30T02:35:46.726Z,4.11
2018-03-30T02:36:46.712Z,4.14
2018-03-30T02:37:46.698Z,4.14
2018-03-30T02:38:46.643Z,4.18
2018-03-30T02:39:46.608Z,4.20
2018-03-30T02:40:46.602Z,4.14
2018-03-30T02:41:46.549Z,4.18
2018-03-30T02:42:46.580Z,4.22
2018-03-30T02:43:46.485Z,4.20
2018-03-30T02:44:46.960Z,4.24
2018-03-30T02:45:46.459Z,4.28
2018-03-30T02:46:46.400Z,4.22
2018-03-30T02:47:46.365Z,4.30
2018-03-30T02:48:46.347Z,4.42
2018-03-30T02:49:46.376Z,4.44
2018-03-30T02:50:46.279Z,4.44
2018-03-30T02:51:46.262Z,4.35
2018-03-30T02:52:46.220Z,4.24
2018-03-30T02:53:46.196Z,4.28
2018-03-30T02:54:46.192Z,4.21
2018-03-30T02:55:46.136Z,4.22
2018-03-30T02:56:46.104Z,4.26
2018-03-30T02:57:46.067Z,4.28
2018-03-30T02:58:46.039Z,4.24
2018-03-30T02:59:46.005Z,4.28
2018-03-30T03:00:45.987Z,4.22
2018-03-30T03:01:45.951Z,4.28
2018-03-30T03:02:45.939Z,4.35
2018-03-30T03:03:45.896Z,4.32
2018-03-30T03:04:45.873Z,4.35
2018-03-30T03:05:45.835Z,4.50
2018-03-30T03:06:45.806Z,4.50
2018-03-30T03:07:45.784Z,4.56
2018-03-30T03:08:45.739Z,4.61
2018-03-30T03:09:45.716Z,4.57
2018-03-30T03:10:45.690Z,4.60
2018-03-30T03:11:45.648Z,4.48
2018-03-30T03:12:45.627Z,4.51
2018-03-30T03:13:45.602Z,4.48
2018-03-30T03:14:45.573Z,4.57
2018-03-30T03:15:45.536Z,4.58
2018-03-30T03:16:45.505Z,4.54
2018-03-30T03:17:46.592Z,4.50
2018-03-30T03:18:45.451Z,4.42
2018-03-30T03:19:45.419Z,4.36
2018-03-30T03:20:45.380Z,4.20
2018-03-30T03:21:45.361Z,4.22
2018-03-30T03:22:45.324Z,4.17
2018-03-30T03:23:45.297Z,4.24
2018-03-30T03:24:45.266Z,4.20
2018-03-30T03:25:45.240Z,4.17
2018-03-30T03:26:45.208Z,4.26
2018-03-30T03:27:45.175Z,4.24
2018-03-30T03:28:45.153Z,4.22
2018-03-30T03:29:45.135Z,4.29
2018-03-30T03:30:45.086Z,4.32
2018-03-30T03:31:45.059Z,4.39
2018-03-30T03:32:45.043Z,4.53
2018-03-30T03:33:44.998Z,4.48
2018-03-30T03:34:44.975Z,4.44
2018-03-30T03:35:44.934Z,4.50
2018-03-30T03:36:44.907Z,4.44
2018-03-30T03:37:44.880Z,4.50
2018-03-30T03:38:44.846Z,4.46
2018-03-30T03:39:45.062Z,4.56
2018-03-30T03:40:44.930Z,4.53
2018-03-30T03:41:45.266Z,4.57
2018-03-30T03:42:44.728Z,4.57
2018-03-30T03:43:44.706Z,4.69
2018-03-30T03:44:44.675Z,4.68
2018-03-30T03:45:44.637Z,4.61
2018-03-30T03:46:44.627Z,4.66
2018-03-30T03:47:44.588Z,4.57
2018-03-30T03:48:44.550Z,4.48
2018-03-30T03:49:44.547Z,4.42
2018-03-30T03:50:44.489Z,4.42
2018-03-30T03:51:45.363Z,4.35
2018-03-30T03:52:44.432Z,4.42
2018-03-30T03:53:44.411Z,4.53
2018-03-30T03:54:44.378Z,4.54
2018-03-30T03:55:44.357Z,4.58
2018-03-30T03:56:44.314Z,4.57
2018-03-30T03:57:44.293Z,4.47
2018-03-30T03:58:44.254Z,4.53
2018-03-30T03:59:44.232Z,4.47
2018-03-30T04:00:44.226Z,4.40
2018-03-30T04:01:44.166Z,4.42
2018-03-30T04:02:44.135Z,4.50
2018-03-30T04:03:44.116Z,4.44
2018-03-30T04:04:44.078Z,4.48
2018-03-30T04:05:44.139Z,4.46
2018-03-30T04:06:44.018Z,4.39
2018-03-30T04:07:44.008Z,4.32
2018-03-30T04:08:43.959Z,4.33
2018-03-30T04:09:50.239Z,4.32
2018-03-30T04:10:43.899Z,4.22
2018-03-30T04:11:43.878Z,4.26
2018-03-30T04:12:43.841Z,4.22
2018-03-30T04:13:43.825Z,4.22
2018-03-30T04:14:43.791Z,4.22
2018-03-30T04:15:43.750Z,4.22
2018-03-30T04:16:43.731Z,4.24
2018-03-30T04:17:43.697Z,4.35
2018-03-30T04:18:43.670Z,4.32
2018-03-30T04:19:43.638Z,4.30
2018-03-30T04:20:43.611Z,4.26
2018-03-30T04:21:43.574Z,4.29
2018-03-30T04:22:43.546Z,4.22
2018-03-30T04:23:43.521Z,4.30
2018-03-30T04:24:43.489Z,4.36
2018-03-30T04:25:43.457Z,4.33
2018-03-30T04:26:43.430Z,4.30
2018-03-30T04:27:43.399Z,4.33
2018-03-30T04:28:43.367Z,4.42
2018-03-30T04:29:43.340Z,4.42
2018-03-30T04:30:43.310Z,4.47
2018-03-30T04:31:43.281Z,4.46
2018-03-30T04:32:43.250Z,4.42
2018-03-30T04:33:43.218Z,4.42
2018-03-30T04:34:43.184Z,4.50
2018-03-30T04:35:43.159Z,4.30
2018-03-30T04:36:43.130Z,4.30
2018-03-30T04:37:43.103Z,4.24
2018-03-30T04:38:43.076Z,4.30
2018-03-30T04:39:43.045Z,4.24
2018-03-30T04:40:43.014Z,4.26
2018-03-30T04:41:42.984Z,4.26
2018-03-30T04:42:42.960Z,4.22
2018-03-30T04:43:42.937Z,4.21
2018-03-30T04:44:42.891Z,4.26
2018-03-30T04:45:42.869Z,4.20
2018-03-30T04:46:42.840Z,4.21
2018-03-30T04:47:42.806Z,4.17
2018-03-30T04:48:42.777Z,4.15
2018-03-30T04:49:42.742Z,4.20
2018-03-30T04:50:42.720Z,4.21
2018-03-30T04:51:42.681Z,4.17
2018-03-30T04:52:42.660Z,4.12
2018-03-30T04:53:42.627Z,4.17
2018-03-30T04:54:42.624Z,4.15
2018-03-30T04:55:42.569Z,4.22
2018-03-30T04:56:42.547Z,4.20
2018-03-30T04:57:42.504Z,4.15
2018-03-30T04:58:42.474Z,4.20
2018-03-30T04:59:42.446Z,4.18
2018-03-30T05:00:42.423Z,4.15
2018-03-30T05:01:42.389Z,4.29
2018-03-30T05:02:42.369Z,4.20
2018-03-30T05:03:42.329Z,4.22
2018-03-30T05:04:42.309Z,4.26
2018-03-30T05:05:42.282Z,4.22
2018-03-30T05:06:42.241Z,4.21
2018-03-30T05:07:42.219Z,4.28
2018-03-30T05:08:42.175Z,4.28
2018-03-30T05:09:42.146Z,4.24
2018-03-30T05:10:42.126Z,4.28
2018-03-30T05:11:42.090Z,4.28
2018-03-30T05:12:42.072Z,4.32
2018-03-30T05:13:42.032Z,4.32
2018-03-30T05:14:42.004Z,4.44
2018-03-30T05:15:41.976Z,4.38
2018-03-30T05:16:41.936Z,4.47
2018-03-30T05:17:41.917Z,4.47
2018-03-30T05:18:41.886Z,4.44
2018-03-30T05:19:41.845Z,4.42
2018-03-30T05:20:41.824Z,4.50
2018-03-30T05:21:41.789Z,4.47
2018-03-30T05:22:41.762Z,4.57
2018-03-30T05:23:41.731Z,4.56
2018-03-30T05:24:41.699Z,4.58
2018-03-30T05:25:41.676Z,4.64
2018-03-30T05:26:41.640Z,4.54
2018-03-30T05:27:41.645Z,4.71
2018-03-30T05:28:41.585Z,4.74
2018-03-30T05:29:41.559Z,4.71
2018-03-30T05:30:41.531Z,4.72
2018-03-30T05:31:41.498Z,4.68
2018-03-30T05:32:41.465Z,4.69
2018-03-30T05:33:41.429Z,4.79
2018-03-30T05:34:41.405Z,4.69
2018-03-30T05:35:41.391Z,4.78
2018-03-30T05:36:41.342Z,4.83
2018-03-30T05:37:41.319Z,4.87
2018-03-30T05:38:41.279Z,4.91
2018-03-30T05:39:41.292Z,4.94
2018-03-30T05:40:41.239Z,5.05
2018-03-30T05:41:41.198Z,5.05
2018-03-30T05:42:41.175Z,4.94
2018-03-30T05:43:41.146Z,5.03
2018-03-30T05:44:41.120Z,4.97
2018-03-30T05:45:41.078Z,5.06
2018-03-30T05:46:41.054Z,5.05
2018-03-30T05:47:41.022Z,5.10
2018-03-30T05:48:40.994Z,5.09
2018-03-30T05:49:40.964Z,5.12
2018-03-30T05:50:40.938Z,5.15
2018-03-30T05:51:41.090Z,5.15
2018-03-30T05:52:40.868Z,5.15
2018-03-30T05:53:40.838Z,5.27
2018-03-30T05:54:40.831Z,5.23
2018-03-30T05:55:40.921Z,5.27
2018-03-30T05:56:40.759Z,5.27
2018-03-30T05:57:40.722Z,5.33
2018-03-30T05:58:40.696Z,5.33
2018-03-30T05:59:40.660Z,5.41
2018-03-30T06:00:40.631Z,5.36
2018-03-30T06:01:40.607Z,5.33
2018-03-30T06:02:40.573Z,5.36
2018-03-30T06:03:40.547Z,5.36
2018-03-30T06:04:40.536Z,5.36
2018-03-30T06:05:40.482Z,5.36
2018-03-30T06:06:40.462Z,5.30
2018-03-30T06:07:40.427Z,5.24
2018-03-30T06:08:40.404Z,5.27
2018-03-30T06:09:40.381Z,5.33
2018-03-30T06:10:40.339Z,5.31
2018-03-30T06:11:40.325Z,5.30
2018-03-30T06:12:40.297Z,5.30
2018-03-30T06:13:40.252Z,5.33
2018-03-30T06:14:40.228Z,5.36
2018-03-30T06:15:40.189Z,5.37
2018-03-30T06:16:40.168Z,5.27
2018-03-30T06:17:40.140Z,5.30
2018-03-30T06:18:40.105Z,5.33
2018-03-30T06:19:40.085Z,5.41
2018-03-30T06:20:40.053Z,5.44
2018-03-30T06:21:40.027Z,5.44
2018-03-30T06:22:39.996Z,5.45
2018-03-30T06:23:39.966Z,5.42
2018-03-30T06:24:39.959Z,5.49
2018-03-30T06:25:39.907Z,5.52
2018-03-30T06:26:39.882Z,5.57
2018-03-30T06:27:39.848Z,5.63
2018-03-30T06:28:39.826Z,5.57
2018-03-30T06:29:39.789Z,5.48
2018-03-30T06:30:39.755Z,5.45
2018-03-30T06:31:39.743Z,5.52
2018-03-30T06:32:39.716Z,5.49
2018-03-30T06:33:39.676Z,5.51
2018-03-30T06:34:39.642Z,5.59
2018-03-30T06:35:39.637Z,5.57
2018-03-30T06:36:39.588Z,5.54
2018-03-30T06:37:39.553Z,5.41
2018-03-30T06:38:39.546Z,5.48
2018-03-30T06:39:39.496Z,5.51
2018-03-30T06:40:39.477Z,5.46
2018-03-30T06:41:39.450Z,5.49
2018-03-30T06:42:39.412Z,5.46
2018-03-30T06:43:39.386Z,5.51
2018-03-30T06:44:39.356Z,5.46
2018-03-30T06:45:39.329Z,5.57
2018-03-30T06:46:39.324Z,5.51
2018-03-30T06:47:39.271Z,5.54
2018-03-30T06:48:39.252Z,5.54
2018-03-30T06:49:39.247Z,5.59
2018-03-30T06:50:39.222Z,5.51
2018-03-30T06:51:39.159Z,5.49
2018-03-30T06:52:39.123Z,5.63
2018-03-30T06:53:39.093Z,5.46
2018-03-30T06:54:39.071Z,5.60
2018-03-30T06:55:39.051Z,5.60
2018-03-30T06:56:39.004Z,5.49
2018-03-30T06:57:38.989Z,5.49
2018-03-30T06:58:38.951Z,5.52
2018-03-30T06:59:38.916Z,5.59
2018-03-30T07:00:38.889Z,5.57
2018-03-30T07:01:38.864Z,5.62
2018-03-30T07:02:38.830Z,5.62
2018-03-30T07:03:38.815Z,5.62
2018-03-30T07:04:38.782Z,5.59
2018-03-30T07:05:38.748Z,5.62
2018-03-30T07:06:38.725Z,5.62
2018-03-30T07:07:38.703Z,5.64
2018-03-30T07:08:38.657Z,5.54
2018-03-30T07:09:38.631Z,5.49
2018-03-30T07:10:38.605Z,5.51
2018-03-30T07:11:38.577Z,5.60
2018-03-30T07:12:38.540Z,5.62
2018-03-30T07:13:38.519Z,5.70
2018-03-30T07:14:38.484Z,5.77
2018-03-30T07:15:38.464Z,5.77
2018-03-30T07:16:38.470Z,5.82
2018-03-30T07:17:38.399Z,5.82
2018-03-30T07:18:38.397Z,5.88
2018-03-30T07:19:38.396Z,5.85
2018-03-30T07:20:38.395Z,5.75
2018-03-30T07:21:38.324Z,5.81
2018-03-30T07:22:38.339Z,5.84
2018-03-30T07:23:38.255Z,5.89
2018-03-30T07:24:38.252Z,5.99
2018-03-30T07:25:38.258Z,6.07
2018-03-30T07:26:38.158Z,6.07
2018-03-30T07:27:38.123Z,6.13
2018-03-30T07:28:38.088Z,6.10
2018-03-30T07:29:38.127Z,6.18
2018-03-30T07:30:38.030Z,6.14
2018-03-30T07:31:38.008Z,6.26
2018-03-30T07:32:37.983Z,6.33
2018-03-30T07:33:37.946Z,6.33
2018-03-30T07:34:37.917Z,6.39
2018-03-30T07:35:37.880Z,6.49
2018-03-30T07:36:37.863Z,6.47
2018-03-30T07:37:37.826Z,6.62
2018-03-30T07:38:37.801Z,6.61
2018-03-30T07:39:37.769Z,6.68
2018-03-30T07:40:37.738Z,6.78
2018-03-30T07:41:38.529Z,6.80
2018-03-30T07:42:37.683Z,6.73
2018-03-30T07:43:37.659Z,6.72
2018-03-30T07:44:37.643Z,6.83
2018-03-30T07:45:37.597Z,6.94
2018-03-30T07:46:37.572Z,7.05
2018-03-30T07:47:37.550Z,7.13
2018-03-30T07:48:37.516Z,7.29
2018-03-30T07:49:37.497Z,7.26
2018-03-30T07:50:37.461Z,7.29
2018-03-30T07:51:37.432Z,7.11
2018-03-30T07:52:37.407Z,7.19
2018-03-30T07:53:37.382Z,7.21
2018-03-30T07:54:37.351Z,7.27
2018-03-30T07:55:37.345Z,7.29
2018-03-30T07:56:37.293Z,7.37
2018-03-30T07:57:37.311Z,7.34
2018-03-30T07:58:37.239Z,7.40
2018-03-30T07:59:37.247Z,7.52
2018-03-30T08:00:37.184Z,7.47
2018-03-30T08:01:37.156Z,7.49
2018-03-30T08:02:37.125Z,7.49
2018-03-30T08:03:37.158Z,7.52
2018-03-30T08:04:37.090Z,7.56
2018-03-30T08:05:37.049Z,7.58
2018-03-30T08:06:37.016Z,7.73
2018-03-30T08:07:37.014Z,7.78
2018-03-30T08:08:36.971Z,7.92
2018-03-30T08:09:36.933Z,8.03
2018-03-30T08:10:36.907Z,8.10
2018-03-30T08:11:37.964Z,8.10
2018-03-30T08:12:36.851Z,8.24
2018-03-30T08:13:36.835Z,8.34
2018-03-30T08:14:36.803Z,8.24
2018-03-30T08:15:36.770Z,8.26
2018-03-30T08:16:36.768Z,8.21
2018-03-30T08:17:36.727Z,8.09
2018-03-30T08:18:36.705Z,8.21
2018-03-30T08:19:36.674Z,8.31
2018-03-30T08:20:36.658Z,8.39
2018-03-30T08:21:36.606Z,8.36
2018-03-30T08:22:36.624Z,8.42
2018-03-30T08:23:36.558Z,8.54
2018-03-30T08:24:36.524Z,8.60
2018-03-30T08:25:36.527Z,8.57
2018-03-30T08:26:36.589Z,8.60
2018-03-30T08:27:39.134Z,8.74
2018-03-30T08:28:36.422Z,8.60
2018-03-30T08:29:36.398Z,8.76
2018-03-30T08:30:36.363Z,8.68
2018-03-30T08:31:36.403Z,8.69
2018-03-30T08:32:36.318Z,8.50
2018-03-30T08:33:36.294Z,8.53
2018-03-30T08:34:36.277Z,8.62
2018-03-30T08:35:36.247Z,8.64
2018-03-30T08:36:36.224Z,8.62
2018-03-30T08:37:36.180Z,8.65
2018-03-30T08:38:36.162Z,8.68
2018-03-30T08:39:36.131Z,8.80
2018-03-30T08:40:36.100Z,8.89
2018-03-30T08:41:36.087Z,8.86
2018-03-30T08:42:36.048Z,8.98
2018-03-30T08:43:36.022Z,8.94
2018-03-30T08:44:36.001Z,8.90
2018-03-30T08:45:35.974Z,8.94
2018-03-30T08:46:35.941Z,8.87
2018-03-30T08:47:35.924Z,9.04
2018-03-30T08:48:35.892Z,9.14
2018-03-30T08:49:35.866Z,9.14
2018-03-30T08:50:35.848Z,9.34
2018-03-30T08:51:36.514Z,9.38
2018-03-30T08:52:35.785Z,9.53
2018-03-30T08:53:35.753Z,9.42
2018-03-30T08:54:35.766Z,9.37
2018-03-30T08:55:35.715Z,9.44
2018-03-30T08:56:35.681Z,9.55
2018-03-30T08:57:35.654Z,9.60
2018-03-30T08:58:35.626Z,9.52
2018-03-30T08:59:35.612Z,9.35
2018-03-30T09:00:35.577Z,9.38
2018-03-30T09:01:36.194Z,9.55
2018-03-30T09:02:35.522Z,9.59
2018-03-30T09:03:35.577Z,9.66
2018-03-30T09:04:35.498Z,9.74
2018-03-30T09:05:35.441Z,9.81
2018-03-30T09:06:35.418Z,9.85
2018-03-30T09:07:35.386Z,9.67
2018-03-30T09:08:35.358Z,9.71
2018-03-30T09:09:35.339Z,9.70
2018-03-30T09:10:35.309Z,9.53
2018-03-30T09:11:35.777Z,9.70
2018-03-30T09:12:36.831Z,9.74
2018-03-30T09:13:36.472Z,9.72
2018-03-30T09:14:37.939Z,9.75
2018-03-30T09:15:35.711Z,9.82
2018-03-30T09:16:36.267Z,9.89
2018-03-30T09:17:35.989Z,10.00
2018-03-30T09:18:38.305Z,10.02
2018-03-30T09:19:35.076Z,10.18
2018-03-30T09:20:35.064Z,10.29
2018-03-30T09:21:35.102Z,10.13
2018-03-30T09:22:35.004Z,10.31
2018-03-30T09:23:34.971Z,10.33
2018-03-30T09:24:34.946Z,10.33
2018-03-30T09:25:34.920Z,10.58
2018-03-30T09:26:34.899Z,10.66
2018-03-30T09:27:34.897Z,10.76
2018-03-30T09:28:34.841Z,10.76
2018-03-30T09:29:34.828Z,10.73
2018-03-30T09:30:34.797Z,10.90
2018-03-30T09:31:34.771Z,10.90
2018-03-30T09:32:34.783Z,10.87
2018-03-30T09:33:34.715Z,10.95
2018-03-30T09:34:34.696Z,10.97
2018-03-30T09:35:34.667Z,11.05
2018-03-30T09:36:34.373Z,11.09
2018-03-30T09:37:34.321Z,11.16
2018-03-30T09:38:34.292Z,11.28
2018-03-30T09:39:34.266Z,11.18
2018-03-30T09:40:34.240Z,11.31
2018-03-30T09:41:34.217Z,11.41
2018-03-30T09:42:34.186Z,11.57
2018-03-30T09:43:34.163Z,11.57
2018-03-30T09:44:34.131Z,11.61
2018-03-30T09:45:34.116Z,11.60
2018-03-30T09:46:34.110Z,11.68
2018-03-30T09:47:34.090Z,11.75
2018-03-30T09:48:34.036Z,11.78
2018-03-30T09:49:34.015Z,11.63
2018-03-30T09:50:33.990Z,11.73
2018-03-30T09:51:33.958Z,11.79
2018-03-30T09:52:33.950Z,11.67
2018-03-30T09:53:33.907Z,11.64
2018-03-30T09:54:33.890Z,11.66
2018-03-30T09:55:33.859Z,11.67
2018-03-30T09:56:33.843Z,11.66
2018-03-30T09:57:33.805Z,11.53
2018-03-30T09:58:33.791Z,11.56
2018-03-30T09:59:33.758Z,11.59
2018-03-30T10:00:33.761Z,11.59
2018-03-30T10:01:33.707Z,11.60
2018-03-30T10:02:33.695Z,11.57
2018-03-30T10:03:33.661Z,11.64
2018-03-30T10:04:33.632Z,11.61
2018-03-30T10:05:33.622Z,11.70
2018-03-30T10:06:33.621Z,11.71
2018-03-30T10:07:33.566Z,11.73
2018-03-30T10:08:33.540Z,11.79
2018-03-30T10:09:33.526Z,11.82
2018-03-30T10:10:33.492Z,11.86
2018-03-30T10:11:33.492Z,11.84
2018-03-30T10:12:33.471Z,11.84
2018-03-30T10:13:33.417Z,11.85
2018-03-30T10:14:33.397Z,11.98
2018-03-30T10:15:33.367Z,11.97
2018-03-30T10:16:33.340Z,11.91
2018-03-30T10:17:33.331Z,11.94
2018-03-30T10:18:33.365Z,12.00
2018-03-30T10:19:33.264Z,12.01
2018-03-30T10:20:33.269Z,11.98
2018-03-30T10:21:33.279Z,12.08
2018-03-30T10:22:33.193Z,12.00
2018-03-30T10:23:33.163Z,12.11
2018-03-30T10:24:33.153Z,12.11
2018-03-30T10:25:33.131Z,12.19
2018-03-30T10:26:33.090Z,12.26
2018-03-30T10:27:33.079Z,12.33
2018-03-30T10:28:33.066Z,12.23
2018-03-30T10:29:33.014Z,12.29
2018-03-30T10:30:32.994Z,12.37
2018-03-30T10:31:33.012Z,12.38
2018-03-30T10:32:32.958Z,12.41
2018-03-30T10:33:32.937Z,12.41
2018-03-30T10:34:32.905Z,12.47
2018-03-30T10:35:32.890Z,12.55
2018-03-30T10:36:32.840Z,12.53
2018-03-30T10:37:32.864Z,12.51
2018-03-30T10:38:32.799Z,12.61
2018-03-30T10:39:32.807Z,12.61
2018-03-30T10:40:32.748Z,12.58
2018-03-30T10:41:32.725Z,12.48
2018-03-30T10:42:32.697Z,12.63
2018-03-30T10:43:32.679Z,12.61
2018-03-30T10:44:32.681Z,12.77
2018-03-30T10:45:32.631Z,12.77
2018-03-30T10:46:32.600Z,12.73
2018-03-30T10:47:32.589Z,12.77
2018-03-30T10:48:32.580Z,12.77
2018-03-30T10:49:32.538Z,12.86
2018-03-30T10:50:32.523Z,12.91
2018-03-30T10:51:32.501Z,12.94
2018-03-30T10:52:32.451Z,12.99
2018-03-30T10:53:32.430Z,13.01
2018-03-30T10:54:32.421Z,12.99
2018-03-30T10:55:32.387Z,13.07
2018-03-30T10:56:32.360Z,13.14
2018-03-30T10:57:32.375Z,13.24
2018-03-30T10:58:32.894Z,13.25
2018-03-30T11:00:32.272Z,13.39
2018-03-30T11:01:32.254Z,13.44
2018-03-30T11:02:32.529Z,13.32
2018-03-30T11:03:32.232Z,13.48
2018-03-30T11:04:32.177Z,13.35
2018-03-30T11:05:32.144Z,13.44
2018-03-30T11:06:32.421Z,13.47
2018-03-30T11:07:32.105Z,13.50
2018-03-30T11:08:32.268Z,13.47
2018-03-30T11:09:32.574Z,13.47
2018-03-30T11:10:33.609Z,13.40
2018-03-30T11:11:32.013Z,13.55
2018-03-30T11:12:32.311Z,13.60
2018-03-30T11:13:31.966Z,13.62
2018-03-30T11:14:31.940Z,13.66
2018-03-30T11:15:32.040Z,13.54
2018-03-30T11:16:31.978Z,13.66
2018-03-30T11:17:31.943Z,13.65
2018-03-30T11:18:31.836Z,13.72
2018-03-30T11:19:31.800Z,13.55
2018-03-30T11:20:31.786Z,13.57
2018-03-30T11:21:31.790Z,13.60
2018-03-30T11:22:31.746Z,13.66
2018-03-30T11:23:31.730Z,13.42
2018-03-30T11:24:31.757Z,13.39
2018-03-30T11:25:31.713Z,13.44
2018-03-30T11:26:31.670Z,13.40
2018-03-30T11:27:31.665Z,13.39
2018-03-30T11:28:31.613Z,13.45
2018-03-30T11:29:32.264Z,13.51
2018-03-30T11:30:32.158Z,13.45
2018-03-30T11:31:36.825Z,13.51
2018-03-30T11:32:31.544Z,13.54
2018-03-30T11:33:31.463Z,13.63
2018-03-30T11:34:32.534Z,13.66
2018-03-30T11:35:35.394Z,13.75
2018-03-30T11:36:32.833Z,13.76
2018-03-30T11:37:31.538Z,13.66
2018-03-30T11:38:32.033Z,13.69
2018-03-30T11:39:31.531Z,13.68
2018-03-30T11:40:31.344Z,13.66
2018-03-30T11:41:31.303Z,13.76
2018-03-30T11:42:31.253Z,13.76
2018-03-30T11:43:31.229Z,13.72
2018-03-30T11:44:31.293Z,13.70
2018-03-30T11:45:31.176Z,13.68
2018-03-30T11:46:31.165Z,13.47
2018-03-30T11:47:31.177Z,13.45
2018-03-30T11:48:31.161Z,13.60
2018-03-30T11:49:31.101Z,13.63
2018-03-30T11:50:31.135Z,13.73
2018-03-30T11:51:31.062Z,13.76
2018-03-30T11:52:31.014Z,13.69
2018-03-30T11:53:31.023Z,13.87
2018-03-30T11:54:31.081Z,13.90
2018-03-30T11:55:30.943Z,13.91
2018-03-30T11:56:30.939Z,13.99
2018-03-30T11:57:30.903Z,14.02
2018-03-30T11:58:30.898Z,14.06
2018-03-30T11:59:30.844Z,14.08
2018-03-30T12:00:30.974Z,14.03
2018-03-30T12:01:30.831Z,13.99
2018-03-30T12:02:30.801Z,13.93
2018-03-30T12:03:30.759Z,13.91
2018-03-30T12:04:30.754Z,13.97
2018-03-30T12:05:30.723Z,13.99
2018-03-30T12:06:30.694Z,13.94
2018-03-30T12:07:30.693Z,14.02
2018-03-30T12:08:30.660Z,14.01
2018-03-30T12:09:30.606Z,14.12
2018-03-30T12:10:30.591Z,14.01
2018-03-30T12:11:30.577Z,14.03
2018-03-30T12:12:30.540Z,13.91
2018-03-30T12:13:30.526Z,13.93
2018-03-30T12:14:30.496Z,13.90
2018-03-30T12:15:30.557Z,13.99
2018-03-30T12:16:30.450Z,14.03
2018-03-30T12:17:30.440Z,14.13
2018-03-30T12:18:30.443Z,14.13
2018-03-30T12:19:30.406Z,14.13
2018-03-30T12:20:30.396Z,14.01
2018-03-30T12:21:30.358Z,13.94
2018-03-30T12:22:30.327Z,13.95
2018-03-30T12:23:30.309Z,13.95
2018-03-30T12:24:30.272Z,13.97
2018-03-30T12:25:30.254Z,13.97
2018-03-30T12:26:30.256Z,13.93
2018-03-30T12:27:30.212Z,13.97
2018-03-30T12:28:30.181Z,14.03
2018-03-30T12:29:30.156Z,14.11
2018-03-30T12:30:30.168Z,14.13
2018-03-30T12:31:30.129Z,14.20
2018-03-30T12:32:30.124Z,14.20
2018-03-30T12:33:30.136Z,14.28
2018-03-30T12:34:30.040Z,14.30
2018-03-30T12:35:30.009Z,14.36
2018-03-30T12:36:30.058Z,14.23
2018-03-30T12:37:29.973Z,14.38
2018-03-30T12:38:29.948Z,14.39
2018-03-30T12:39:29.948Z,14.38
2018-03-30T12:40:29.949Z,14.41
2018-03-30T12:41:29.857Z,14.31
2018-03-30T12:42:29.871Z,14.34
2018-03-30T12:43:29.833Z,14.41
2018-03-30T12:44:29.819Z,14.41
2018-03-30T12:45:29.784Z,14.39
2018-03-30T12:46:29.757Z,14.38
2018-03-30T12:47:29.759Z,14.27
2018-03-30T12:48:29.708Z,14.31
2018-03-30T12:49:29.683Z,14.30
2018-03-30T12:50:29.654Z,14.33
2018-03-30T12:51:29.661Z,14.44
2018-03-30T12:52:29.622Z,14.45
2018-03-30T12:53:29.589Z,14.44
2018-03-30T12:54:29.596Z,14.44
2018-03-30T12:55:29.526Z,14.51
2018-03-30T12:56:29.560Z,14.46
2018-03-30T12:57:29.527Z,14.49
2018-03-30T12:58:30.408Z,14.53
2018-03-30T12:59:29.455Z,14.57
2018-03-30T13:00:29.436Z,14.51
2018-03-30T13:01:29.408Z,14.42
2018-03-30T13:02:29.456Z,14.44
2018-03-30T13:03:29.358Z,14.42
2018-03-30T13:04:29.363Z,14.41
2018-03-30T13:05:29.301Z,14.39
2018-03-30T13:06:29.309Z,14.33
2018-03-30T13:07:29.240Z,14.31
2018-03-30T13:08:29.240Z,14.20
2018-03-30T13:09:29.198Z,14.20
2018-03-30T13:10:29.180Z,14.24
2018-03-30T13:11:29.204Z,14.15